SBOSBO FNC / LPMA
Speedbird OnlineSpeedbird Online FNC / LPMA

Madeira Airport
08:57 21.2°C

Location Funchal, Portugal
Latitude: 32.697899
Longitude: -16.7745
Web Airport Website | Wikipedia
Altitude 59 Meter / 192 Feet
Distance 2,501 KM / 1,554 Miles
from London.
Time Zone UTC +1 hours (Europe/Lisbon)
Codes IATA: FNC
ICAO: LPMA
Currency £1 equals EUR 1.15
Runways
RunwayLength (m)Surface
052777Asphalt
232777Asphalt
Radio
TypeDescriptionFrequency
APPAPP119.2
TWRTWR118.35
Live ATC
METAR LPMA 060730Z 35016KT 320V020 9999 BKN015 21/15 Q1022
TAF TAF LPMA 060500Z 0606/0706 36010KT 9999 SCT016 PROB30 TEMPO 0609/0621 01015G25KT
Weather As Of 06 Oct 2022 08:57
Description Broken clouds
Wind 30 km/h from North (350°)
Cloud Cover 75%
Precipitation Rain: none, Snow: none
Sunrise 08:04
Sunset 19:45
Rotations During the last 90 days there were
78 flights from LHR
73 flights to LHR


© 2017-2022 Speedbird Online